createdAt,value
2019-04-22T00:02:11.890Z,7.76
2019-04-22T00:04:30.196Z,7.47
2019-04-22T00:06:51.722Z,7.32
2019-04-22T00:09:02.259Z,7.22
2019-04-22T00:11:21.239Z,7.12
2019-04-22T00:13:26.539Z,7.21
2019-04-22T00:15:29.463Z,7.34
2019-04-22T00:20:00.446Z,7.20
2019-04-22T00:22:08.040Z,7.22
2019-04-22T00:24:12.221Z,7.20
2019-04-22T00:26:23.963Z,7.31
2019-04-22T00:28:41.542Z,7.30
2019-04-22T00:30:40.627Z,7.10
2019-04-22T00:33:03.452Z,7.05
2019-04-22T00:35:15.202Z,7.07
2019-04-22T00:37:25.038Z,7.24
2019-04-22T00:41:42.837Z,7.09
2019-04-22T00:43:56.769Z,6.93
2019-04-22T00:46:01.125Z,6.86
2019-04-22T00:48:16.022Z,6.95
2019-04-22T00:50:26.764Z,6.95
2019-04-22T00:52:34.681Z,6.89
2019-04-22T00:54:51.260Z,6.76
2019-04-22T00:56:50.843Z,7.10
2019-04-22T00:58:59.101Z,6.99
2019-04-22T01:01:14.374Z,7.08
2019-04-22T01:03:27.453Z,6.98
2019-04-22T01:05:34.404Z,7.04
2019-04-22T01:07:44.565Z,7.01
2019-04-22T01:09:58.630Z,7.22
2019-04-22T01:11:59.119Z,7.27
2019-04-22T01:14:09.229Z,7.07
2019-04-22T01:16:24.989Z,7.17
2019-04-22T01:18:27.938Z,7.09
2019-04-22T01:21:02.195Z,7.38
2019-04-22T01:22:46.242Z,7.24
2019-04-22T01:24:57.855Z,7.22
2019-04-22T01:27:03.208Z,7.11
2019-04-22T01:29:12.667Z,7.25
2019-04-22T01:31:12.362Z,7.19
2019-04-22T01:33:28.115Z,7.41
2019-04-22T01:35:41.198Z,7.74
2019-04-22T01:37:54.177Z,7.57
2019-04-22T01:40:14.774Z,7.51
2019-04-22T01:42:18.802Z,7.87
2019-04-22T01:44:33.395Z,7.60
2019-04-22T01:46:47.630Z,7.66
2019-04-22T01:48:47.287Z,7.64
2019-04-22T01:50:54.778Z,7.45
2019-04-22T01:53:27.364Z,7.38
2019-04-22T01:57:22.937Z,6.92
2019-04-22T01:59:28.638Z,7.11
2019-04-22T02:01:53.492Z,7.17
2019-04-22T02:03:57.443Z,7.44
2019-04-22T02:06:06.934Z,7.54
2019-04-22T02:08:27.673Z,7.30
2019-04-22T02:10:30.136Z,7.23
2019-04-22T02:12:35.469Z,7.59
2019-04-22T02:16:55.870Z,7.18
2019-04-22T02:19:08.963Z,7.00
2019-04-22T02:21:09.338Z,6.72
2019-04-22T02:23:45.174Z,6.77
2019-04-22T02:25:40.986Z,6.97
2019-04-22T02:27:46.008Z,6.72
2019-04-22T02:29:54.075Z,6.63
2019-04-22T02:32:19.628Z,6.54
2019-04-22T02:36:30.074Z,6.87
2019-04-22T02:38:51.326Z,6.57
2019-04-22T02:41:10.196Z,6.63
2019-04-22T02:43:02.711Z,6.62
2019-04-22T02:45:26.650Z,6.56
2019-04-22T02:49:37.861Z,6.66
2019-04-22T02:56:05.516Z,6.77
2019-04-22T02:58:05.646Z,6.66
2019-04-22T03:00:21.592Z,6.91
2019-04-22T03:02:28.484Z,6.64
2019-04-22T03:04:37.480Z,6.66
2019-04-22T03:11:16.833Z,6.39
2019-04-22T03:13:21.387Z,6.70
2019-04-22T03:15:11.637Z,6.58
2019-04-22T03:17:36.764Z,6.58
2019-04-22T03:21:46.929Z,6.71
2019-04-22T03:24:18.026Z,6.55
2019-04-22T03:26:27.372Z,6.59
2019-04-22T03:28:18.812Z,6.56
2019-04-22T03:30:47.559Z,6.91
2019-04-22T03:33:05.472Z,6.88
2019-04-22T03:35:20.024Z,6.77
2019-04-22T03:39:28.249Z,6.76
2019-04-22T03:41:27.233Z,6.78
2019-04-22T03:43:33.787Z,6.85
2019-04-22T03:45:30.220Z,6.93
2019-04-22T03:47:53.736Z,7.05
2019-04-22T03:50:17.628Z,6.91
2019-04-22T03:54:29.841Z,6.72
2019-04-22T03:57:04.947Z,6.76
2019-04-22T03:58:28.850Z,6.79
2019-04-22T04:00:55.882Z,6.69
2019-04-22T04:02:59.565Z,6.68
2019-04-22T04:05:29.644Z,6.74
2019-04-22T04:11:39.017Z,6.82
2019-04-22T04:13:41.979Z,6.78
2019-04-22T04:15:38.370Z,6.92
2019-04-22T04:20:10.901Z,6.89
2019-04-22T04:22:35.886Z,6.85
2019-04-22T04:24:48.037Z,7.00
2019-04-22T04:31:19.553Z,6.93
2019-04-22T04:33:11.233Z,7.13
2019-04-22T04:35:23.893Z,7.10
2019-04-22T04:37:42.413Z,7.31
2019-04-22T04:39:40.518Z,7.38
2019-04-22T04:41:52.084Z,7.19
2019-04-22T04:44:11.163Z,7.33
2019-04-22T04:46:06.110Z,7.46
2019-04-22T04:48:14.453Z,7.43
2019-04-22T04:55:03.941Z,7.70
2019-04-22T04:56:46.628Z,7.76
2019-04-22T04:59:08.151Z,7.52
2019-04-22T05:03:21.217Z,7.57
2019-04-22T05:09:47.371Z,7.85
2019-04-22T05:12:01.858Z,7.77
2019-04-22T05:14:05.415Z,7.80
2019-04-22T05:16:25.100Z,7.87
2019-04-22T05:18:20.763Z,7.87
2019-04-22T05:22:43.096Z,7.87
2019-04-22T05:24:51.860Z,7.86
2019-04-22T05:27:10.869Z,7.90
2019-04-22T05:29:09.648Z,8.00
2019-04-22T05:31:27.615Z,8.05
2019-04-22T05:33:32.174Z,8.11
2019-04-22T05:35:33.296Z,8.13
2019-04-22T05:37:54.689Z,8.25
2019-04-22T05:40:04.466Z,8.29
2019-04-22T05:44:14.686Z,8.54
2019-04-22T05:46:22.525Z,8.39
2019-04-22T05:48:34.183Z,8.37
2019-04-22T05:50:37.345Z,8.38
2019-04-22T05:52:56.003Z,8.50
2019-04-22T05:55:08.281Z,8.55
2019-04-22T05:57:17.953Z,8.44
2019-04-22T05:59:24.433Z,8.52
2019-04-22T06:01:45.110Z,8.59
2019-04-22T06:03:50.899Z,8.70
2019-04-22T06:06:00.802Z,8.73
2019-04-22T06:08:08.265Z,8.83
2019-04-22T06:10:21.325Z,8.78
2019-04-22T06:12:23.387Z,8.82
2019-04-22T06:14:31.101Z,8.78
2019-04-22T06:16:50.250Z,8.75
2019-04-22T06:19:02.818Z,8.90
2019-04-22T06:21:11.548Z,8.94
2019-04-22T06:23:30.699Z,8.96
2019-04-22T06:25:57.830Z,8.85
2019-04-22T06:27:41.633Z,8.95
2019-04-22T06:29:51.321Z,9.00
2019-04-22T06:32:17.864Z,9.00
2019-04-22T06:34:11.901Z,8.97
2019-04-22T06:36:38.288Z,9.03
2019-04-22T06:38:35.902Z,9.08
2019-04-22T06:40:39.142Z,9.13
2019-04-22T06:42:53.390Z,9.10
2019-04-22T06:44:57.930Z,9.16
2019-04-22T06:47:10.535Z,9.24
2019-04-22T06:49:18.859Z,9.30
2019-04-22T06:51:30.982Z,9.27
2019-04-22T06:53:34.643Z,9.33
2019-04-22T06:55:45.826Z,9.36
2019-04-22T06:57:51.101Z,9.34
2019-04-22T07:00:05.285Z,9.30
2019-04-22T07:02:18.055Z,9.35
2019-04-22T07:04:22.257Z,9.40
2019-04-22T07:06:40.110Z,9.66
2019-04-22T07:10:50.453Z,9.68
2019-04-22T07:13:01.231Z,9.66
2019-04-22T07:15:24.387Z,9.62
2019-04-22T07:17:22.147Z,9.67
2019-04-22T07:19:33.629Z,9.65
2019-04-22T07:21:57.581Z,9.68
2019-04-22T07:24:03.040Z,9.83
2019-04-22T07:25:58.462Z,9.85
2019-04-22T07:28:11.183Z,9.88
2019-04-22T07:30:22.031Z,9.85
2019-04-22T07:32:54.919Z,9.98
2019-04-22T07:34:40.751Z,10.12
2019-04-22T07:36:59.002Z,10.25
2019-04-22T07:38:57.240Z,10.79
2019-04-22T07:41:05.848Z,11.19
2019-04-22T07:45:29.572Z,11.33
2019-04-22T07:47:38.074Z,11.27
2019-04-22T07:51:58.796Z,11.55
2019-04-22T07:54:06.501Z,11.73
2019-04-22T07:56:18.421Z,11.44
2019-04-22T07:58:26.106Z,11.20
2019-04-22T08:00:38.683Z,11.09
2019-04-22T08:07:10.726Z,11.46
2019-04-22T08:09:20.313Z,11.46
2019-04-22T08:11:37.650Z,11.36
2019-04-22T08:15:48.533Z,11.52
2019-04-22T08:20:05.549Z,11.60
2019-04-22T08:22:11.861Z,11.72
2019-04-22T08:24:23.886Z,11.89
2019-04-22T08:26:36.636Z,12.31
2019-04-22T08:28:50.143Z,12.76
2019-04-22T08:30:55.079Z,13.13
2019-04-22T08:33:04.077Z,12.94
2019-04-22T08:35:18.720Z,13.17
2019-04-22T08:39:31.158Z,13.11
2019-04-22T08:41:37.547Z,12.94
2019-04-22T08:43:57.335Z,13.05
2019-04-22T08:46:06.182Z,13.02
2019-04-22T08:48:21.074Z,12.79
2019-04-22T08:50:25.512Z,12.78
2019-04-22T08:52:38.636Z,12.72
2019-04-22T08:54:44.930Z,12.66
2019-04-22T08:56:50.690Z,12.81
2019-04-22T09:01:11.229Z,13.85
2019-04-22T09:03:16.002Z,13.66
2019-04-22T09:05:52.176Z,13.69
2019-04-22T09:07:48.568Z,13.87
2019-04-22T09:09:54.081Z,13.89
2019-04-22T09:12:04.357Z,13.87
2019-04-22T09:14:11.626Z,14.11
2019-04-22T09:16:21.906Z,14.28
2019-04-22T09:18:32.936Z,14.53
2019-04-22T09:20:41.820Z,14.54
2019-04-22T09:22:48.430Z,14.53
2019-04-22T09:24:51.774Z,14.01
2019-04-22T09:27:11.263Z,13.76
2019-04-22T09:29:20.939Z,13.81
2019-04-22T09:31:24.016Z,13.57
2019-04-22T09:33:36.895Z,13.64
2019-04-22T09:42:10.751Z,13.85
2019-04-22T09:44:21.841Z,14.21
2019-04-22T09:46:39.602Z,14.78
2019-04-22T09:48:43.893Z,14.36
2019-04-22T09:50:57.327Z,14.42
2019-04-22T09:53:02.119Z,14.75
2019-04-22T09:55:12.516Z,15.00
2019-04-22T09:57:21.686Z,15.46
2019-04-22T09:59:35.295Z,15.22
2019-04-22T10:01:50.417Z,15.04
2019-04-22T10:03:56.292Z,15.80
2019-04-22T10:06:13.271Z,15.75
2019-04-22T10:08:18.557Z,15.53
2019-04-22T10:16:50.762Z,15.48
2019-04-22T10:21:19.131Z,14.87
2019-04-22T10:23:20.227Z,14.71
2019-04-22T10:25:32.720Z,14.61
2019-04-22T10:27:39.803Z,14.68
2019-04-22T10:29:53.693Z,15.31
2019-04-22T10:31:55.807Z,15.09
2019-04-22T10:33:58.475Z,14.80
2019-04-22T10:35:51.862Z,14.68
2019-04-22T10:38:00.676Z,14.75
2019-04-22T10:40:15.819Z,14.83
2019-04-22T10:42:25.221Z,14.99
2019-04-22T10:44:35.258Z,14.98
2019-04-22T10:46:44.354Z,14.78
2019-04-22T10:48:52.756Z,14.79
2019-04-22T10:51:01.032Z,14.90
2019-04-22T10:53:09.123Z,15.64
2019-04-22T10:55:17.376Z,15.98
2019-04-22T10:57:25.639Z,15.44
2019-04-22T10:59:34.389Z,15.00
2019-04-22T11:01:42.423Z,14.78
2019-04-22T11:03:51.124Z,14.92
2019-04-22T11:05:59.406Z,14.74
2019-04-22T11:08:08.500Z,14.83
2019-04-22T11:10:34.666Z,14.98
2019-04-22T11:12:30.810Z,14.95
2019-04-22T11:14:40.159Z,15.31
2019-04-22T11:16:47.694Z,15.51
2019-04-22T11:18:55.882Z,15.55
2019-04-22T11:21:05.283Z,15.36
2019-04-22T11:23:14.386Z,15.55
2019-04-22T11:25:23.610Z,16.39
2019-04-22T11:27:32.926Z,15.97
2019-04-22T11:29:41.541Z,15.83
2019-04-22T11:31:50.442Z,15.55
2019-04-22T11:33:58.623Z,15.64
2019-04-22T11:36:07.957Z,15.35
2019-04-22T11:38:17.288Z,15.21
2019-04-22T11:40:34.831Z,15.58
2019-04-22T11:42:36.317Z,15.98
2019-04-22T11:44:45.407Z,15.89
2019-04-22T11:46:53.694Z,15.91
2019-04-22T11:49:01.724Z,16.03
2019-04-22T11:51:09.775Z,16.44
2019-04-22T11:53:18.657Z,16.33
2019-04-22T11:55:26.933Z,16.53
2019-04-22T11:57:35.031Z,16.64
2019-04-22T11:59:43.072Z,16.66
2019-04-22T12:01:52.812Z,17.20
2019-04-22T12:04:02.170Z,17.15
2019-04-22T12:06:10.390Z,16.74
2019-04-22T12:08:18.743Z,16.68
2019-04-22T12:10:34.684Z,16.86
2019-04-22T12:12:36.999Z,17.07
2019-04-22T12:14:45.879Z,16.79
2019-04-22T12:16:55.195Z,16.58
2019-04-22T12:19:03.209Z,16.16
2019-04-22T12:21:11.028Z,16.09
2019-04-22T12:23:18.989Z,16.75
2019-04-22T12:25:34.842Z,17.09
2019-04-22T12:27:38.888Z,17.03
2019-04-22T12:29:47.182Z,17.22
2019-04-22T12:31:55.614Z,16.76
2019-04-22T12:34:05.986Z,16.50
2019-04-22T12:36:14.951Z,16.18
2019-04-22T12:38:24.092Z,16.76
2019-04-22T12:40:40.790Z,16.80
2019-04-22T12:42:42.150Z,16.89
2019-04-22T12:44:51.182Z,17.39
2019-04-22T12:47:00.733Z,17.73
2019-04-22T12:49:09.906Z,16.58
2019-04-22T12:51:18.881Z,16.11
2019-04-22T12:53:28.040Z,16.14
2019-04-22T12:55:37.474Z,16.88
2019-04-22T12:57:46.452Z,17.28
2019-04-22T12:59:55.428Z,17.39
2019-04-22T13:02:03.246Z,17.50
2019-04-22T13:04:15.304Z,16.88
2019-04-22T13:06:21.734Z,17.02
2019-04-22T13:08:29.859Z,16.51
2019-04-22T13:10:45.627Z,16.92
2019-04-22T13:12:47.219Z,17.06
2019-04-22T13:14:55.111Z,16.51
2019-04-22T13:17:04.024Z,16.34
2019-04-22T13:19:14.958Z,16.30
2019-04-22T13:21:22.761Z,16.00
2019-04-22T13:23:31.769Z,15.88
2019-04-22T13:25:40.903Z,15.85
2019-04-22T13:27:49.169Z,15.93
2019-04-22T13:29:57.407Z,15.82
2019-04-22T13:32:06.850Z,15.92
2019-04-22T13:34:21.630Z,15.78
2019-04-22T13:36:27.650Z,15.78
2019-04-22T13:38:35.376Z,16.12
2019-04-22T13:40:57.880Z,16.44
2019-04-22T13:42:53.521Z,16.79
2019-04-22T13:45:01.973Z,16.82
2019-04-22T13:47:27.940Z,16.65
2019-04-22T13:49:49.415Z,16.81
2019-04-22T13:52:02.371Z,17.10
2019-04-22T13:54:36.855Z,17.47
2019-04-22T13:56:26.310Z,17.64
2019-04-22T13:58:14.599Z,17.53
2019-04-22T14:00:13.802Z,17.03
2019-04-22T14:02:32.731Z,16.73
2019-04-22T14:04:42.935Z,16.27
2019-04-22T14:06:52.535Z,16.09
2019-04-22T14:09:01.219Z,15.84
2019-04-22T14:11:16.805Z,15.93
2019-04-22T14:13:21.670Z,15.97
2019-04-22T14:15:31.975Z,15.95
2019-04-22T14:17:41.027Z,15.85
2019-04-22T14:19:48.903Z,15.91
2019-04-22T14:21:57.800Z,15.89
2019-04-22T14:24:07.360Z,15.92
2019-04-22T14:26:15.479Z,15.91
2019-04-22T14:28:25.136Z,16.09
2019-04-22T14:30:34.572Z,16.20
2019-04-22T14:32:43.989Z,16.23
2019-04-22T14:34:53.201Z,16.23
2019-04-22T14:37:01.494Z,16.40
2019-04-22T14:39:12.198Z,16.43
2019-04-22T14:41:35.831Z,16.21
2019-04-22T14:44:24.523Z,16.25
2019-04-22T14:46:08.067Z,16.49
2019-04-22T14:48:11.012Z,16.43
2019-04-22T14:50:17.861Z,16.63
2019-04-22T14:52:33.174Z,16.63
2019-04-22T14:54:34.577Z,16.71
2019-04-22T14:56:28.680Z,16.44
2019-04-22T14:58:37.398Z,16.44
2019-04-22T15:00:45.937Z,16.53
2019-04-22T15:02:55.463Z,16.31
2019-04-22T15:05:03.821Z,16.34
2019-04-22T15:07:12.758Z,16.23
2019-04-22T15:09:21.845Z,16.26
2019-04-22T15:11:41.809Z,16.17
2019-04-22T15:13:39.196Z,16.17
2019-04-22T15:16:03.015Z,16.26
2019-04-22T15:18:33.468Z,16.36
2019-04-22T15:20:54.301Z,16.37
2019-04-22T15:23:02.462Z,16.11
2019-04-22T15:25:10.619Z,16.18
2019-04-22T15:27:31.123Z,16.27
2019-04-22T15:29:39.251Z,16.17
2019-04-22T15:31:47.481Z,16.23
2019-04-22T15:33:56.424Z,16.11
2019-04-22T15:36:05.719Z,16.10
2019-04-22T15:38:15.416Z,16.00
2019-04-22T15:40:24.734Z,15.92
2019-04-22T15:42:37.732Z,15.91
2019-04-22T15:44:44.189Z,15.94
2019-04-22T15:46:53.193Z,15.92
2019-04-22T15:49:02.150Z,15.84
2019-04-22T15:51:10.949Z,15.80
2019-04-22T15:53:20.047Z,15.77
2019-04-22T15:55:29.119Z,15.70
2019-04-22T15:57:39.450Z,15.61
2019-04-22T16:00:02.308Z,15.45
2019-04-22T16:02:00.124Z,15.31
2019-04-22T16:04:06.430Z,15.14
2019-04-22T16:06:15.665Z,15.11
2019-04-22T16:08:24.698Z,14.97
2019-04-22T16:10:33.796Z,14.78
2019-04-22T16:12:53.046Z,14.73
2019-04-22T16:14:56.495Z,14.66
2019-04-22T16:17:01.264Z,14.58
2019-04-22T16:19:09.657Z,14.65
2019-04-22T16:21:30.180Z,14.56
2019-04-22T16:23:56.545Z,14.57
2019-04-22T16:26:42.510Z,14.49
2019-04-22T16:28:53.737Z,14.43
2019-04-22T16:31:01.450Z,14.48
2019-04-22T16:33:10.406Z,14.49
2019-04-22T16:35:18.785Z,14.36
2019-04-22T16:37:26.790Z,14.38
2019-04-22T16:39:36.451Z,14.39
2019-04-22T16:41:46.575Z,14.38
2019-04-22T16:43:56.231Z,14.37
2019-04-22T16:46:05.637Z,14.27
2019-04-22T16:48:13.769Z,14.25
2019-04-22T16:50:23.031Z,14.28
2019-04-22T16:52:32.190Z,14.20
2019-04-22T16:54:48.510Z,14.21
2019-04-22T16:56:57.559Z,14.13
2019-04-22T16:59:06.667Z,14.12
2019-04-22T17:01:36.722Z,14.11
2019-04-22T17:04:04.866Z,14.08
2019-04-22T17:06:32.259Z,13.95
2019-04-22T17:08:40.443Z,13.95
2019-04-22T17:10:49.479Z,13.99
2019-04-22T17:13:03.501Z,13.88
2019-04-22T17:15:12.331Z,13.90
2019-04-22T17:17:20.239Z,13.81
2019-04-22T17:19:29.194Z,13.72
2019-04-22T17:21:37.575Z,13.71
2019-04-22T17:23:45.787Z,13.69
2019-04-22T17:25:54.432Z,13.66
2019-04-22T17:28:03.560Z,13.60
2019-04-22T17:30:12.470Z,13.60
2019-04-22T17:32:23.049Z,13.63
2019-04-22T17:34:31.814Z,13.49
2019-04-22T17:36:40.531Z,13.49
2019-04-22T17:38:59.956Z,13.47
2019-04-22T17:41:11.651Z,13.46
2019-04-22T17:43:36.152Z,13.50
2019-04-22T17:45:55.865Z,13.51
2019-04-22T17:48:38.246Z,13.44
2019-04-22T17:50:44.435Z,13.37
2019-04-22T17:53:03.592Z,13.33
2019-04-22T17:55:02.707Z,13.37
2019-04-22T17:57:09.979Z,13.38
2019-04-22T17:59:23.346Z,13.32
2019-04-22T18:01:32.617Z,13.30
2019-04-22T18:03:32.500Z,13.13
2019-04-22T18:05:43.793Z,13.23
2019-04-22T18:08:09.698Z,13.21
2019-04-22T18:10:27.543Z,13.10
2019-04-22T18:12:36.206Z,13.21
2019-04-22T18:14:44.857Z,13.11
2019-04-22T18:16:43.006Z,13.08
2019-04-22T18:18:52.891Z,13.04
2019-04-22T18:20:57.454Z,13.03
2019-04-22T18:23:03.631Z,13.05
2019-04-22T18:25:14.886Z,13.02
2019-04-22T18:27:47.270Z,13.04
2019-04-22T18:29:43.418Z,12.92
2019-04-22T18:31:44.159Z,12.94
2019-04-22T18:33:59.449Z,12.95
2019-04-22T18:36:09.973Z,12.85
2019-04-22T18:38:32.999Z,12.82
2019-04-22T18:40:30.819Z,12.71
2019-04-22T18:42:45.776Z,12.79
2019-04-22T18:44:55.556Z,12.78
2019-04-22T18:47:01.200Z,12.73
2019-04-22T18:49:11.048Z,12.68
2019-04-22T18:51:35.232Z,12.60
2019-04-22T18:54:00.160Z,12.57
2019-04-22T18:56:19.160Z,12.56
2019-04-22T18:58:21.463Z,12.44
2019-04-22T19:00:21.298Z,12.28
2019-04-22T19:02:33.162Z,12.29
2019-04-22T19:04:53.068Z,12.33
2019-04-22T19:07:07.458Z,12.27
2019-04-22T19:09:27.341Z,12.19
2019-04-22T19:11:30.154Z,12.21
2019-04-22T19:13:56.037Z,12.06
2019-04-22T19:16:25.591Z,12.06
2019-04-22T19:20:47.857Z,12.00
2019-04-22T19:22:55.256Z,11.96
2019-04-22T19:24:54.745Z,11.97
2019-04-22T19:27:20.113Z,11.96
2019-04-22T19:29:18.639Z,11.96
2019-04-22T19:31:40.754Z,11.89
2019-04-22T19:33:34.556Z,11.81
2019-04-22T19:35:40.218Z,11.81
2019-04-22T19:37:51.944Z,11.84
2019-04-22T19:42:25.121Z,11.84
2019-04-22T19:44:26.266Z,11.81
2019-04-22T19:46:35.433Z,11.79
2019-04-22T19:48:45.715Z,11.70
2019-04-22T19:51:06.966Z,11.74
2019-04-22T19:53:03.529Z,11.66
2019-04-22T19:55:14.090Z,11.65
2019-04-22T19:57:24.930Z,11.58
2019-04-22T19:59:32.744Z,11.63
2019-04-22T20:02:00.684Z,11.60
2019-04-22T20:04:41.303Z,11.51
2019-04-22T20:06:47.872Z,11.55
2019-04-22T20:08:59.312Z,11.43
2019-04-22T20:11:12.880Z,11.38
2019-04-22T20:13:25.212Z,11.35
2019-04-22T20:15:22.636Z,11.44
2019-04-22T20:17:56.489Z,11.36
2019-04-22T20:19:50.149Z,11.25
2019-04-22T20:21:59.656Z,11.29
2019-04-22T20:23:55.926Z,11.22
2019-04-22T20:26:07.563Z,11.21
2019-04-22T20:28:29.094Z,11.18
2019-04-22T20:30:39.933Z,11.22
2019-04-22T20:32:44.617Z,11.14
2019-04-22T20:34:57.529Z,11.10
2019-04-22T20:37:10.467Z,11.10
2019-04-22T20:39:10.884Z,11.06
2019-04-22T20:41:22.807Z,11.06
2019-04-22T20:43:43.140Z,11.02
2019-04-22T20:45:46.645Z,11.01
2019-04-22T20:47:45.440Z,10.93
2019-04-22T20:50:05.509Z,10.89
2019-04-22T20:52:19.246Z,10.93
2019-04-22T20:54:22.917Z,10.72
2019-04-22T20:56:29.978Z,10.81
2019-04-22T20:58:47.965Z,10.85
2019-04-22T21:00:46.425Z,10.75
2019-04-22T21:02:51.308Z,10.65
2019-04-22T21:04:59.076Z,10.69
2019-04-22T21:07:16.853Z,10.64
2019-04-22T21:09:27.298Z,10.75
2019-04-22T21:11:38.564Z,10.65
2019-04-22T21:13:51.326Z,10.63
2019-04-22T21:16:04.524Z,10.64
2019-04-22T21:18:05.565Z,10.54
2019-04-22T21:20:28.977Z,10.62
2019-04-22T21:22:33.911Z,10.55
2019-04-22T21:24:34.745Z,10.52
2019-04-22T21:26:44.061Z,10.57
2019-04-22T21:28:56.741Z,10.48
2019-04-22T21:31:17.161Z,10.41
2019-04-22T21:33:16.291Z,10.52
2019-04-22T21:35:47.517Z,10.45
2019-04-22T21:37:43.060Z,10.38
2019-04-22T21:39:42.099Z,10.24
2019-04-22T21:41:56.987Z,10.29
2019-04-22T21:44:12.812Z,10.30
2019-04-22T21:46:20.770Z,10.29
2019-04-22T21:48:37.172Z,10.31
2019-04-22T21:52:54.775Z,10.17
2019-04-22T21:55:08.692Z,10.20
2019-04-22T21:57:24.173Z,10.13
2019-04-22T21:59:30.693Z,10.12
2019-04-22T22:04:04.765Z,10.02
2019-04-22T22:06:02.967Z,10.01
2019-04-22T22:08:27.324Z,10.00
2019-04-22T22:10:34.487Z,9.95
2019-04-22T22:12:40.790Z,9.88
2019-04-22T22:14:51.332Z,9.91
2019-04-22T22:16:53.399Z,9.76
2019-04-22T22:19:11.719Z,9.81
2019-04-22T22:21:34.917Z,9.85
2019-04-22T22:23:34.526Z,9.85
2019-04-22T22:25:33.706Z,9.75
2019-04-22T22:27:44.374Z,9.69
2019-04-22T22:30:29.390Z,9.66
2019-04-22T22:32:13.278Z,9.72
2019-04-22T22:34:19.091Z,9.70
2019-04-22T22:36:20.727Z,9.71
2019-04-22T22:38:31.194Z,9.68
2019-04-22T22:40:27.653Z,9.56
2019-04-22T22:42:38.680Z,9.56
2019-04-22T22:44:46.759Z,9.54
2019-04-22T22:47:08.598Z,9.56
2019-04-22T22:49:23.397Z,9.47
2019-04-22T22:51:39.605Z,9.33
2019-04-22T22:53:46.402Z,9.42
2019-04-22T22:55:46.381Z,9.48
2019-04-22T22:58:01.331Z,9.43
2019-04-22T23:00:09.709Z,9.39
2019-04-22T23:02:15.682Z,9.47
2019-04-22T23:06:38.280Z,9.38
2019-04-22T23:08:51.870Z,9.35
2019-04-22T23:11:00.945Z,9.37
2019-04-22T23:13:06.882Z,9.31
2019-04-22T23:15:12.034Z,9.33
2019-04-22T23:17:10.013Z,9.33
2019-04-22T23:19:13.586Z,9.30
2019-04-22T23:21:29.305Z,9.31
2019-04-22T23:23:53.010Z,9.22
2019-04-22T23:26:02.568Z,9.21
2019-04-22T23:28:26.595Z,9.16
2019-04-22T23:30:44.590Z,9.26
2019-04-22T23:33:05.810Z,9.25
2019-04-22T23:35:22.669Z,9.08
2019-04-22T23:37:39.398Z,9.18
2019-04-22T23:39:56.548Z,9.18
2019-04-22T23:42:20.885Z,9.22
2019-04-22T23:44:14.326Z,9.10
2019-04-22T23:46:19.004Z,9.20
2019-04-22T23:48:24.579Z,9.20
2019-04-22T23:50:37.566Z,9.19
2019-04-22T23:52:53.318Z,9.29
2019-04-22T23:55:06.571Z,9.30
2019-04-22T23:57:08.817Z,9.21
2019-04-22T23:59:37.942Z,9.18
